createdAt,value
2019-05-25T00:00:03.346Z,80.12
2019-05-25T00:01:03.330Z,80.12
2019-05-25T00:02:03.359Z,80.53
2019-05-25T00:03:03.309Z,80.33
2019-05-25T00:04:03.302Z,79.71
2019-05-25T00:05:03.296Z,79.71
2019-05-25T00:06:03.289Z,79.91
2019-05-25T00:07:03.293Z,79.09
2019-05-25T00:08:03.265Z,79.16
2019-05-25T00:09:03.246Z,79.50
2019-05-25T00:10:03.259Z,78.89
2019-05-25T00:11:03.244Z,79.19
2019-05-25T00:12:03.243Z,78.89
2019-05-25T00:13:03.220Z,79.40
2019-05-25T00:14:03.223Z,79.05
2019-05-25T00:15:03.201Z,79.50
2019-05-25T00:16:03.165Z,79.30
2019-05-25T00:18:03.151Z,79.61
2019-05-25T00:19:03.249Z,79.50
2019-05-25T00:20:03.121Z,79.09
2019-05-25T00:21:03.122Z,79.40
2019-05-25T00:22:03.113Z,79.50
2019-05-25T00:23:03.099Z,78.64
2019-05-25T00:24:11.652Z,78.54
2019-05-25T00:25:04.131Z,78.64
2019-05-25T00:26:03.068Z,79.26
2019-05-25T00:27:03.049Z,79.47
2019-05-25T00:28:03.048Z,78.64
2019-05-25T00:29:03.028Z,78.23
2019-05-25T00:30:03.034Z,78.33
2019-05-25T00:31:03.020Z,78.75
2019-05-25T00:32:03.001Z,78.13
2019-05-25T00:33:02.987Z,78.33
2019-05-25T00:34:03.034Z,78.54
2019-05-25T00:35:02.982Z,78.23
2019-05-25T00:36:02.994Z,78.33
2019-05-25T00:37:02.956Z,78.96
2019-05-25T00:38:02.970Z,79.16
2019-05-25T00:39:02.942Z,78.44
2019-05-25T00:40:02.948Z,78.54
2019-05-25T00:41:02.932Z,78.75
2019-05-25T00:42:02.941Z,78.96
2019-05-25T00:43:02.900Z,78.96
2019-05-25T00:44:02.909Z,78.75
2019-05-25T00:45:02.892Z,78.85
2019-05-25T00:46:02.871Z,78.33
2019-05-25T00:47:02.854Z,78.54
2019-05-25T00:48:12.855Z,78.75
2019-05-25T00:49:02.832Z,78.75
2019-05-25T00:50:02.811Z,79.67
2019-05-25T00:51:02.823Z,79.36
2019-05-25T00:52:02.780Z,79.30
2019-05-25T00:53:02.770Z,79.71
2019-05-25T00:54:02.770Z,79.36
2019-05-25T00:55:02.768Z,79.67
2019-05-25T00:56:02.807Z,79.81
2019-05-25T00:57:02.729Z,80.53
2019-05-25T00:58:02.731Z,80.43
2019-05-25T00:59:02.724Z,80.43
2019-05-25T01:00:02.698Z,80.43
2019-05-25T01:01:02.701Z,79.77
2019-05-25T01:02:02.736Z,80.08
2019-05-25T01:03:02.668Z,79.26
2019-05-25T01:04:02.653Z,78.85
2019-05-25T01:05:02.654Z,79.16
2019-05-25T01:06:02.672Z,79.98
2019-05-25T01:07:02.659Z,79.47
2019-05-25T01:08:02.643Z,78.85
2019-05-25T01:09:02.622Z,78.75
2019-05-25T01:10:02.637Z,79.33
2019-05-25T01:11:02.602Z,79.02
2019-05-25T01:12:02.612Z,78.20
2019-05-25T01:13:02.560Z,78.20
2019-05-25T01:14:03.135Z,77.37
2019-05-25T01:15:02.559Z,77.27
2019-05-25T01:16:02.548Z,77.37
2019-05-25T01:17:02.523Z,77.58
2019-05-25T01:18:02.545Z,77.78
2019-05-25T01:19:12.952Z,78.20
2019-05-25T01:20:02.484Z,77.78
2019-05-25T01:21:02.484Z,78.20
2019-05-25T01:22:02.465Z,78.13
2019-05-25T01:23:02.463Z,78.33
2019-05-25T01:24:02.472Z,78.44
2019-05-25T01:25:02.430Z,78.64
2019-05-25T01:26:02.430Z,78.75
2019-05-25T01:27:02.423Z,78.75
2019-05-25T01:28:02.432Z,78.64
2019-05-25T01:29:02.432Z,78.85
2019-05-25T01:30:02.395Z,78.44
2019-05-25T01:31:02.379Z,78.54
2019-05-25T01:32:02.374Z,78.20
2019-05-25T01:33:02.370Z,77.89
2019-05-25T01:34:02.348Z,78.64
2019-05-25T01:35:02.363Z,78.85
2019-05-25T01:36:02.331Z,78.85
2019-05-25T01:37:02.916Z,78.44
2019-05-25T01:38:02.310Z,78.23
2019-05-25T01:39:02.318Z,78.64
2019-05-25T01:40:02.276Z,78.92
2019-05-25T01:41:02.279Z,78.64
2019-05-25T01:42:02.269Z,79.33
2019-05-25T01:43:02.251Z,79.02
2019-05-25T01:44:02.288Z,77.99
2019-05-25T01:45:02.225Z,77.89
2019-05-25T01:46:02.225Z,77.89
2019-05-25T01:47:02.218Z,78.50
2019-05-25T01:48:02.199Z,79.02
2019-05-25T01:49:02.186Z,78.92
2019-05-25T01:50:14.641Z,78.30
2019-05-25T01:51:02.168Z,77.78
2019-05-25T01:52:02.154Z,78.20
2019-05-25T01:53:02.131Z,78.30
2019-05-25T01:54:02.134Z,78.47
2019-05-25T01:55:02.121Z,78.47
2019-05-25T01:56:02.121Z,77.85
2019-05-25T01:57:02.112Z,78.36
2019-05-25T01:58:02.094Z,77.03
2019-05-25T01:59:02.074Z,77.13
2019-05-25T02:00:02.599Z,77.95
2019-05-25T02:01:02.062Z,78.16
2019-05-25T02:02:02.044Z,77.75
2019-05-25T02:03:02.140Z,78.06
2019-05-25T02:04:02.022Z,78.16
2019-05-25T02:05:02.093Z,77.44
2019-05-25T02:06:02.023Z,77.65
2019-05-25T02:07:01.995Z,78.06
2019-05-25T02:08:01.998Z,78.06
2019-05-25T02:09:01.989Z,77.34
2019-05-25T02:10:01.971Z,77.55
2019-05-25T02:11:02.009Z,77.75
2019-05-25T02:12:01.987Z,77.55
2019-05-25T02:13:01.928Z,77.85
2019-05-25T02:14:01.916Z,77.34
2019-05-25T02:15:01.920Z,77.65
2019-05-25T02:16:01.917Z,78.27
2019-05-25T02:17:01.908Z,77.85
2019-05-25T02:18:01.877Z,78.06
2019-05-25T02:19:01.872Z,78.06
2019-05-25T02:20:01.885Z,77.20
2019-05-25T02:21:12.413Z,78.06
2019-05-25T02:22:01.846Z,77.51
2019-05-25T02:23:01.840Z,77.30
2019-05-25T02:24:01.813Z,77.81
2019-05-25T02:25:16.244Z,78.02
2019-05-25T02:26:02.795Z,77.30
2019-05-25T02:27:01.790Z,77.20
2019-05-25T02:28:01.787Z,77.51
2019-05-25T02:29:01.753Z,77.51
2019-05-25T02:30:01.783Z,78.02
2019-05-25T02:31:01.738Z,77.92
2019-05-25T02:32:01.753Z,78.12
2019-05-25T02:33:01.763Z,78.02
2019-05-25T02:34:01.724Z,77.30
2019-05-25T02:35:01.708Z,77.71
2019-05-25T02:36:01.701Z,77.30
2019-05-25T02:37:01.696Z,77.10
2019-05-25T02:38:01.677Z,77.00
2019-05-25T02:39:01.711Z,77.71
2019-05-25T02:40:01.656Z,77.30
2019-05-25T02:41:01.660Z,77.30
2019-05-25T02:42:01.619Z,77.00
2019-05-25T02:43:01.619Z,77.00
2019-05-25T02:44:01.611Z,77.10
2019-05-25T02:45:01.611Z,77.40
2019-05-25T02:46:01.576Z,78.12
2019-05-25T02:47:01.574Z,77.92
2019-05-25T02:48:01.562Z,78.02
2019-05-25T02:49:01.537Z,77.51
2019-05-25T02:50:01.583Z,77.30
2019-05-25T02:51:01.529Z,77.30
2019-05-25T02:52:12.080Z,77.61
2019-05-25T02:53:01.512Z,78.12
2019-05-25T02:54:01.484Z,77.92
2019-05-25T02:55:01.477Z,78.09
2019-05-25T02:56:01.503Z,77.78
2019-05-25T02:57:01.462Z,77.68
2019-05-25T02:58:01.445Z,77.88
2019-05-25T02:59:01.458Z,77.98
2019-05-25T03:00:01.423Z,77.88
2019-05-25T03:01:01.426Z,76.96
2019-05-25T03:02:01.452Z,77.17
2019-05-25T03:03:01.425Z,77.44
2019-05-25T03:04:01.395Z,76.62
2019-05-25T03:05:01.389Z,77.23
2019-05-25T03:06:01.439Z,76.48
2019-05-25T03:07:01.361Z,76.68
2019-05-25T03:08:01.350Z,76.17
2019-05-25T03:09:01.344Z,75.45
2019-05-25T03:10:01.389Z,75.56
2019-05-25T03:11:01.324Z,75.86
2019-05-25T03:12:01.322Z,76.78
2019-05-25T03:13:01.314Z,76.89
2019-05-25T03:14:01.290Z,76.27
2019-05-25T03:15:01.385Z,76.37
2019-05-25T03:16:01.316Z,76.27
2019-05-25T03:17:01.359Z,75.96
2019-05-25T03:18:01.271Z,75.86
2019-05-25T03:19:01.249Z,76.17
2019-05-25T03:20:01.224Z,76.89
2019-05-25T03:21:01.220Z,76.68
2019-05-25T03:22:01.220Z,75.93
2019-05-25T03:23:11.646Z,75.62
2019-05-25T03:24:01.175Z,75.93
2019-05-25T03:25:01.154Z,75.62
2019-05-25T03:26:01.146Z,76.54
2019-05-25T03:27:01.155Z,76.20
2019-05-25T03:28:01.151Z,75.28
2019-05-25T03:29:01.177Z,75.69
2019-05-25T03:30:01.156Z,76.31
2019-05-25T03:31:01.105Z,75.28
2019-05-25T03:32:01.109Z,75.48
2019-05-25T03:33:01.114Z,75.48
2019-05-25T03:34:01.088Z,75.18
2019-05-25T03:35:01.070Z,75.48
2019-05-25T03:36:01.056Z,75.04
2019-05-25T03:37:01.040Z,75.04
2019-05-25T03:38:01.029Z,74.43
2019-05-25T03:39:01.036Z,74.94
2019-05-25T03:40:01.007Z,75.14
2019-05-25T03:41:01.004Z,75.24
2019-05-25T03:42:01.002Z,75.14
2019-05-25T03:43:00.992Z,75.65
2019-05-25T03:44:01.011Z,75.35
2019-05-25T03:45:00.948Z,74.73
2019-05-25T03:46:00.965Z,74.73
2019-05-25T03:47:00.964Z,74.84
2019-05-25T03:48:00.957Z,75.52
2019-05-25T03:49:00.932Z,75.72
2019-05-25T03:50:00.901Z,75.82
2019-05-25T03:51:00.881Z,75.59
2019-05-25T03:52:00.932Z,75.07
2019-05-25T03:53:00.874Z,74.49
2019-05-25T03:54:10.991Z,74.80
2019-05-25T03:55:00.891Z,75.10
2019-05-25T03:56:05.928Z,75.72
2019-05-25T03:57:01.821Z,75.62
2019-05-25T03:58:00.817Z,75.21
2019-05-25T03:59:00.822Z,75.31
2019-05-25T04:00:00.803Z,74.90
2019-05-25T04:01:00.789Z,75.21
2019-05-25T04:02:00.770Z,75.55
2019-05-25T04:03:00.771Z,75.96
2019-05-25T04:04:00.748Z,76.37
2019-05-25T04:05:00.746Z,76.17
2019-05-25T04:06:00.746Z,76.47
2019-05-25T04:07:00.735Z,76.27
2019-05-25T04:08:00.718Z,75.65
2019-05-25T04:09:00.719Z,75.45
2019-05-25T04:10:00.700Z,75.86
2019-05-25T04:11:00.675Z,75.76
2019-05-25T04:12:00.675Z,75.65
2019-05-25T04:13:00.667Z,76.06
2019-05-25T04:14:00.659Z,76.06
2019-05-25T04:15:00.638Z,76.06
2019-05-25T04:16:00.682Z,75.76
2019-05-25T04:17:00.614Z,75.69
2019-05-25T04:18:00.615Z,76.72
2019-05-25T04:19:00.594Z,76.10
2019-05-25T04:20:00.575Z,76.61
2019-05-25T04:21:00.591Z,76.20
2019-05-25T04:22:00.592Z,77.02
2019-05-25T04:23:00.563Z,77.43
2019-05-25T04:24:00.541Z,76.27
2019-05-25T04:25:10.641Z,76.47
2019-05-25T04:26:00.513Z,76.98
2019-05-25T04:27:00.512Z,77.33
2019-05-25T04:28:00.511Z,77.02
2019-05-25T04:29:00.481Z,77.53
2019-05-25T04:30:00.474Z,77.64
2019-05-25T04:31:00.470Z,77.73
2019-05-25T04:32:00.451Z,77.64
2019-05-25T04:33:00.481Z,78.05
2019-05-25T04:34:00.462Z,77.64
2019-05-25T04:35:00.525Z,77.73
2019-05-25T04:36:00.426Z,77.73
2019-05-25T04:37:00.480Z,77.53
2019-05-25T04:38:00.444Z,77.73
2019-05-25T04:39:00.391Z,77.19
2019-05-25T04:40:00.369Z,78.01
2019-05-25T04:41:00.389Z,77.70
2019-05-25T04:42:00.352Z,77.70
2019-05-25T04:43:00.361Z,77.05
2019-05-25T04:44:00.380Z,76.75
2019-05-25T04:45:00.341Z,76.75
2019-05-25T04:46:00.304Z,76.84
2019-05-25T04:47:00.320Z,76.95
2019-05-25T04:48:00.310Z,76.91
2019-05-25T04:49:00.271Z,76.20
2019-05-25T04:50:00.265Z,75.89
2019-05-25T04:51:00.292Z,76.30
2019-05-25T04:52:00.247Z,76.91
2019-05-25T04:53:00.261Z,76.71
2019-05-25T04:54:00.250Z,77.22
2019-05-25T04:55:00.237Z,76.81
2019-05-25T04:56:10.097Z,76.09
2019-05-25T04:57:00.184Z,75.68
2019-05-25T04:58:00.184Z,76.81
2019-05-25T04:59:00.175Z,76.71
2019-05-25T05:00:00.165Z,77.12
2019-05-25T05:01:00.190Z,76.81
2019-05-25T05:02:00.156Z,76.98
2019-05-25T05:03:00.176Z,76.94
2019-05-25T05:04:00.120Z,76.43
2019-05-25T05:05:00.112Z,75.48
2019-05-25T05:06:00.106Z,74.97
2019-05-25T05:07:00.134Z,73.91
2019-05-25T05:08:00.084Z,73.71
2019-05-25T05:09:00.098Z,74.22
2019-05-25T05:10:03.044Z,73.91
2019-05-25T05:11:00.065Z,74.73
2019-05-25T05:12:00.063Z,74.15
2019-05-25T05:13:00.025Z,75.07
2019-05-25T05:14:00.043Z,74.46
2019-05-25T05:15:00.013Z,74.97
2019-05-25T05:16:00.043Z,75.07
2019-05-25T05:16:59.983Z,75.07
2019-05-25T05:17:59.970Z,75.58
2019-05-25T05:18:59.963Z,75.58
2019-05-25T05:19:59.949Z,75.89
2019-05-25T05:21:00.440Z,75.78
2019-05-25T05:21:59.951Z,76.70
2019-05-25T05:22:59.929Z,76.09
2019-05-25T05:23:59.907Z,75.71
2019-05-25T05:24:59.918Z,75.31
2019-05-25T05:25:59.922Z,76.12
2019-05-25T05:27:10.455Z,76.64
2019-05-25T05:27:59.868Z,75.92
2019-05-25T05:28:59.853Z,76.43
2019-05-25T05:29:59.835Z,76.03
2019-05-25T05:30:59.850Z,76.53
2019-05-25T05:31:59.867Z,76.40
2019-05-25T05:32:59.816Z,75.89
2019-05-25T05:33:59.794Z,75.27
2019-05-25T05:34:59.800Z,75.99
2019-05-25T05:35:59.802Z,75.44
2019-05-25T05:36:59.801Z,74.83
2019-05-25T05:37:59.763Z,74.93
2019-05-25T05:38:59.765Z,75.34
2019-05-25T05:39:59.735Z,75.13
2019-05-25T05:40:59.733Z,74.29
2019-05-25T05:41:59.714Z,73.98
2019-05-25T05:42:59.713Z,73.77
2019-05-25T05:43:59.696Z,74.08
2019-05-25T05:44:59.686Z,74.59
2019-05-25T05:45:59.692Z,72.82
2019-05-25T05:46:59.795Z,73.43
2019-05-25T05:47:59.673Z,73.60
2019-05-25T05:48:59.645Z,74.01
2019-05-25T05:49:59.625Z,73.71
2019-05-25T05:50:59.642Z,72.99
2019-05-25T05:51:59.611Z,73.16
2019-05-25T05:52:59.622Z,71.53
2019-05-25T05:53:59.604Z,71.53
2019-05-25T05:54:59.593Z,71.73
2019-05-25T05:55:59.574Z,71.53
2019-05-25T05:57:11.706Z,72.04
2019-05-25T05:58:09.582Z,72.65
2019-05-25T05:58:59.585Z,72.31
2019-05-25T05:59:59.525Z,72.01
2019-05-25T06:00:59.506Z,71.19
2019-05-25T06:01:59.506Z,73.13
2019-05-25T06:02:59.496Z,73.13
2019-05-25T06:03:59.498Z,72.52
2019-05-25T06:04:59.483Z,72.17
2019-05-25T06:05:59.467Z,71.47
2019-05-25T06:06:59.444Z,70.55
2019-05-25T06:07:59.430Z,70.65
2019-05-25T06:08:59.434Z,71.67
2019-05-25T06:09:59.435Z,71.67
2019-05-25T06:10:59.415Z,71.50
2019-05-25T06:11:59.414Z,72.41
2019-05-25T06:12:59.373Z,72.92
2019-05-25T06:13:59.388Z,72.11
2019-05-25T06:14:59.413Z,72.41
2019-05-25T06:15:59.351Z,72.38
2019-05-25T06:16:59.360Z,72.38
2019-05-25T06:17:59.337Z,72.58
2019-05-25T06:18:59.329Z,72.38
2019-05-25T06:19:59.341Z,71.67
2019-05-25T06:20:59.313Z,72.28
2019-05-25T06:21:59.281Z,72.17
2019-05-25T06:22:59.314Z,71.64
2019-05-25T06:23:59.273Z,71.67
2019-05-25T06:24:59.260Z,72.38
2019-05-25T06:25:59.272Z,72.99
2019-05-25T06:26:59.283Z,71.97
2019-05-25T06:27:59.233Z,72.17
2019-05-25T06:29:09.449Z,72.89
2019-05-25T06:29:59.209Z,72.48
2019-05-25T06:30:59.217Z,72.89
2019-05-25T06:31:59.191Z,72.58
2019-05-25T06:32:59.187Z,72.08
2019-05-25T06:33:59.151Z,72.58
2019-05-25T06:34:59.147Z,73.10
2019-05-25T06:35:59.139Z,71.97
2019-05-25T06:36:59.152Z,72.58
2019-05-25T06:37:59.130Z,73.10
2019-05-25T06:38:59.107Z,72.69
2019-05-25T06:39:59.121Z,72.89
2019-05-25T06:40:59.080Z,73.10
2019-05-25T06:41:59.097Z,73.19
2019-05-25T06:42:59.048Z,73.40
2019-05-25T06:43:59.049Z,73.60
2019-05-25T06:44:59.029Z,72.69
2019-05-25T06:45:59.028Z,72.48
2019-05-25T06:46:59.028Z,73.60
2019-05-25T06:47:59.041Z,72.28
2019-05-25T06:48:58.991Z,72.28
2019-05-25T06:49:59.001Z,72.17
2019-05-25T06:50:58.972Z,72.17
2019-05-25T06:51:58.957Z,73.40
2019-05-25T06:52:58.986Z,72.75
2019-05-25T06:53:59.007Z,72.65
2019-05-25T06:54:58.926Z,73.16
2019-05-25T06:55:58.927Z,72.96
2019-05-25T06:56:58.928Z,73.77
2019-05-25T06:57:58.896Z,74.18
2019-05-25T06:58:58.896Z,73.06
2019-05-25T07:00:58.863Z,74.11
2019-05-25T07:01:58.854Z,73.91
2019-05-25T07:02:58.842Z,74.11
2019-05-25T07:03:58.822Z,74.01
2019-05-25T07:04:58.811Z,73.80
2019-05-25T07:05:58.835Z,73.50
2019-05-25T07:06:58.794Z,74.04
2019-05-25T07:07:58.781Z,74.52
2019-05-25T07:08:58.772Z,75.02
2019-05-25T07:09:58.780Z,75.13
2019-05-25T07:10:58.750Z,74.62
2019-05-25T07:11:58.752Z,74.89
2019-05-25T07:12:58.742Z,74.58
2019-05-25T07:13:58.735Z,74.15
2019-05-25T07:14:58.725Z,73.94
2019-05-25T07:15:58.786Z,73.84
2019-05-25T07:16:58.690Z,73.84
2019-05-25T07:17:58.683Z,73.13
2019-05-25T07:18:58.672Z,73.23
2019-05-25T07:19:58.650Z,73.23
2019-05-25T07:20:58.651Z,72.92
2019-05-25T07:21:58.643Z,72.41
2019-05-25T07:22:58.638Z,73.84
2019-05-25T07:23:58.610Z,73.47
2019-05-25T07:24:58.604Z,74.18
2019-05-25T07:25:58.642Z,73.47
2019-05-25T07:26:58.595Z,73.77
2019-05-25T07:28:00.259Z,73.77
2019-05-25T07:28:58.579Z,73.36
2019-05-25T07:29:58.548Z,73.57
2019-05-25T07:31:09.197Z,73.47
2019-05-25T07:32:58.539Z,73.77
2019-05-25T07:33:58.496Z,73.30
2019-05-25T07:34:58.487Z,73.50
2019-05-25T07:35:58.482Z,72.89
2019-05-25T07:36:58.479Z,73.80
2019-05-25T07:37:58.487Z,73.87
2019-05-25T07:38:58.499Z,73.87
2019-05-25T07:39:58.449Z,73.97
2019-05-25T07:40:58.437Z,73.77
2019-05-25T07:41:58.433Z,73.94
2019-05-25T07:42:58.419Z,74.24
2019-05-25T07:43:58.435Z,73.74
2019-05-25T07:44:58.406Z,73.80
2019-05-25T07:45:58.370Z,73.39
2019-05-25T07:46:58.364Z,71.36
2019-05-25T07:47:58.346Z,72.38
2019-05-25T07:48:58.355Z,71.03
2019-05-25T07:49:58.349Z,71.53
2019-05-25T07:50:58.314Z,72.04
2019-05-25T07:51:58.317Z,70.31
2019-05-25T07:52:58.322Z,70.11
2019-05-25T07:53:58.287Z,71.94
2019-05-25T07:54:58.306Z,71.94
2019-05-25T07:55:58.265Z,70.72
2019-05-25T07:56:58.266Z,71.64
2019-05-25T07:58:13.618Z,71.43
2019-05-25T07:58:59.226Z,71.12
2019-05-25T07:59:58.228Z,71.23
2019-05-25T08:00:58.291Z,71.12
2019-05-25T08:02:10.394Z,71.33
2019-05-25T08:03:58.195Z,71.40
2019-05-25T08:04:58.167Z,71.70
2019-05-25T08:05:58.154Z,72.11
2019-05-25T08:06:58.165Z,70.89
2019-05-25T08:07:58.158Z,71.09
2019-05-25T08:08:58.122Z,69.67
2019-05-25T08:09:58.119Z,70.48
2019-05-25T08:10:58.113Z,69.87
2019-05-25T08:11:58.095Z,69.98
2019-05-25T08:12:58.093Z,69.57
2019-05-25T08:13:58.102Z,69.47
2019-05-25T08:14:58.084Z,70.48
2019-05-25T08:15:58.111Z,70.79
2019-05-25T08:16:58.065Z,70.18
2019-05-25T08:17:58.041Z,70.65
2019-05-25T08:18:58.028Z,70.45
2019-05-25T08:19:58.004Z,70.76
2019-05-25T08:20:58.004Z,71.16
2019-05-25T08:21:57.991Z,70.32
2019-05-25T08:22:57.997Z,70.72
2019-05-25T08:23:57.975Z,70.21
2019-05-25T08:24:57.967Z,70.01
2019-05-25T08:25:57.972Z,70.11
2019-05-25T08:26:57.930Z,69.30
2019-05-25T08:27:57.954Z,69.40
2019-05-25T08:28:57.912Z,69.60
2019-05-25T08:29:57.940Z,70.32
2019-05-25T08:31:01.124Z,70.42
2019-05-25T08:31:57.901Z,69.88
2019-05-25T08:33:57.882Z,69.57
2019-05-25T08:34:57.856Z,67.24
2019-05-25T08:35:57.843Z,68.26
2019-05-25T08:36:57.821Z,69.47
2019-05-25T08:37:57.841Z,67.34
2019-05-25T08:38:57.806Z,68.56
2019-05-25T08:39:57.804Z,68.66
2019-05-25T08:40:57.796Z,68.46
2019-05-25T08:41:57.764Z,69.68
2019-05-25T08:42:57.782Z,68.12
2019-05-25T08:43:57.753Z,68.02
2019-05-25T08:44:57.740Z,67.41
2019-05-25T08:45:57.732Z,68.23
2019-05-25T08:46:57.724Z,69.03
2019-05-25T08:47:57.740Z,68.93
2019-05-25T08:48:57.701Z,68.09
2019-05-25T08:49:57.692Z,67.18
2019-05-25T08:50:59.670Z,68.12
2019-05-25T08:51:57.689Z,67.11
2019-05-25T08:52:57.681Z,68.02
2019-05-25T08:53:57.670Z,67.75
2019-05-25T08:54:57.644Z,68.26
2019-05-25T08:55:57.644Z,67.75
2019-05-25T08:56:57.611Z,68.23
2019-05-25T08:57:57.613Z,67.11
2019-05-25T08:58:57.644Z,68.29
2019-05-25T08:59:57.580Z,68.16
2019-05-25T09:00:57.582Z,67.14
2019-05-25T09:01:57.592Z,66.61
2019-05-25T09:02:57.563Z,65.70
2019-05-25T09:04:57.532Z,67.35
2019-05-25T09:05:57.521Z,68.36
2019-05-25T09:06:57.514Z,67.35
2019-05-25T09:07:57.499Z,67.85
2019-05-25T09:08:57.504Z,68.26
2019-05-25T09:09:57.533Z,68.02
2019-05-25T09:10:57.477Z,65.12
2019-05-25T09:11:57.465Z,66.74
2019-05-25T09:12:57.454Z,66.64
2019-05-25T09:13:57.444Z,66.44
2019-05-25T09:14:57.421Z,67.14
2019-05-25T09:15:57.433Z,66.47
2019-05-25T09:16:57.425Z,66.13
2019-05-25T09:17:57.417Z,67.25
2019-05-25T09:18:57.391Z,66.13
2019-05-25T09:19:57.384Z,66.81
2019-05-25T09:20:57.375Z,66.91
2019-05-25T09:22:02.482Z,66.71
2019-05-25T09:22:58.342Z,66.10
2019-05-25T09:23:57.322Z,66.30
2019-05-25T09:24:57.332Z,65.90
2019-05-25T09:25:57.374Z,66.00
2019-05-25T09:26:57.313Z,65.93
2019-05-25T09:27:57.302Z,66.44
2019-05-25T09:29:04.407Z,67.05
2019-05-25T09:29:58.261Z,67.25
2019-05-25T09:30:57.250Z,67.85
2019-05-25T09:31:57.282Z,67.25
2019-05-25T09:32:57.265Z,67.35
2019-05-25T09:33:57.222Z,66.24
2019-05-25T09:35:57.202Z,67.65
2019-05-25T09:36:57.181Z,67.55
2019-05-25T09:37:57.182Z,67.05
2019-05-25T09:38:57.171Z,66.27
2019-05-25T09:39:57.160Z,67.99
2019-05-25T09:40:57.152Z,67.28
2019-05-25T09:41:57.152Z,67.48
2019-05-25T09:42:57.146Z,66.70
2019-05-25T09:43:57.111Z,68.52
2019-05-25T09:44:57.102Z,69.13
2019-05-25T09:45:57.101Z,67.31
2019-05-25T09:46:57.094Z,68.12
2019-05-25T09:47:57.151Z,68.23
2019-05-25T09:48:57.051Z,68.63
2019-05-25T09:49:57.062Z,69.44
2019-05-25T09:50:57.040Z,69.57
2019-05-25T09:51:57.063Z,69.88
2019-05-25T09:52:57.067Z,69.37
2019-05-25T09:53:57.001Z,68.15
2019-05-25T09:54:56.998Z,69.27
2019-05-25T09:55:57.003Z,67.85
2019-05-25T09:56:56.985Z,68.49
2019-05-25T09:57:56.958Z,69.30
2019-05-25T09:58:56.971Z,68.70
2019-05-25T09:59:56.940Z,69.37
2019-05-25T10:00:56.930Z,68.76
2019-05-25T10:01:56.962Z,68.29
2019-05-25T10:02:56.960Z,70.11
2019-05-25T10:03:56.941Z,70.01
2019-05-25T10:04:56.887Z,70.21
2019-05-25T10:06:56.873Z,69.91
2019-05-25T10:07:56.851Z,69.30
2019-05-25T10:08:56.882Z,69.20
2019-05-25T10:09:56.840Z,70.01
2019-05-25T10:10:56.830Z,70.42
2019-05-25T10:11:56.825Z,69.00
2019-05-25T10:12:56.809Z,69.81
2019-05-25T10:13:56.799Z,68.08
2019-05-25T10:14:56.812Z,69.10
2019-05-25T10:15:56.794Z,68.56
2019-05-25T10:16:56.761Z,68.46
2019-05-25T10:17:56.762Z,67.95
2019-05-25T10:18:56.791Z,69.17
2019-05-25T10:19:56.737Z,68.63
2019-05-25T10:20:56.710Z,69.07
2019-05-25T10:21:59.400Z,68.87
2019-05-25T10:22:56.701Z,69.98
2019-05-25T10:23:56.679Z,70.08
2019-05-25T10:24:56.708Z,70.72
2019-05-25T10:25:56.675Z,69.91
2019-05-25T10:26:56.660Z,69.00
2019-05-25T10:27:56.636Z,70.52
2019-05-25T10:28:56.627Z,70.11
2019-05-25T10:29:56.691Z,70.45
2019-05-25T10:30:56.649Z,71.16
2019-05-25T10:31:56.597Z,71.36
2019-05-25T10:32:56.591Z,70.96
2019-05-25T10:33:56.586Z,70.65
2019-05-25T10:34:56.561Z,69.84
2019-05-25T10:35:56.674Z,70.55
2019-05-25T10:37:56.530Z,70.01
2019-05-25T10:38:56.530Z,69.91
2019-05-25T10:39:56.521Z,70.01
2019-05-25T10:40:58.511Z,70.92
2019-05-25T10:41:56.520Z,70.83
2019-05-25T10:42:56.501Z,70.15
2019-05-25T10:43:56.469Z,70.76
2019-05-25T10:44:56.470Z,70.76
2019-05-25T10:45:56.462Z,70.89
2019-05-25T10:46:56.492Z,70.59
2019-05-25T10:47:56.442Z,71.30
2019-05-25T10:48:56.421Z,72.52
2019-05-25T10:49:56.427Z,72.72
2019-05-25T10:50:56.400Z,72.92
2019-05-25T10:51:56.408Z,72.21
2019-05-25T10:52:56.420Z,72.92
2019-05-25T10:53:56.398Z,73.02
2019-05-25T10:54:56.375Z,73.46
2019-05-25T10:55:56.359Z,74.28
2019-05-25T10:56:56.326Z,74.18
2019-05-25T10:57:56.329Z,74.58
2019-05-25T10:58:56.405Z,74.79
2019-05-25T10:59:56.308Z,75.60
2019-05-25T11:00:56.323Z,75.33
2019-05-25T11:01:56.300Z,76.14
2019-05-25T11:02:56.263Z,76.14
2019-05-25T11:03:56.256Z,76.14
2019-05-25T11:04:56.286Z,76.38
2019-05-25T11:05:56.246Z,77.29
2019-05-25T11:06:56.213Z,77.60
2019-05-25T11:08:06.826Z,76.68
2019-05-25T11:08:56.218Z,76.89
2019-05-25T11:09:56.206Z,78.01
2019-05-25T11:10:56.215Z,78.52
2019-05-25T11:11:56.175Z,77.44
2019-05-25T11:12:56.151Z,76.92
2019-05-25T11:13:56.164Z,77.03
2019-05-25T11:14:56.149Z,77.84
2019-05-25T11:15:56.123Z,77.23
2019-05-25T11:16:56.711Z,77.03
2019-05-25T11:17:56.108Z,76.92
2019-05-25T11:18:56.118Z,76.72
2019-05-25T11:19:56.107Z,77.64
2019-05-25T11:20:56.103Z,77.60
2019-05-25T11:21:56.091Z,78.01
2019-05-25T11:22:56.060Z,77.91
2019-05-25T11:23:56.045Z,77.70
2019-05-25T11:24:56.073Z,77.70
2019-05-25T11:25:56.012Z,76.14
2019-05-25T11:26:59.568Z,75.94
2019-05-25T11:27:56.003Z,76.55
2019-05-25T11:28:56.003Z,75.63
2019-05-25T11:30:08.619Z,76.21
2019-05-25T11:30:56.984Z,75.90
2019-05-25T11:31:59.767Z,76.01
2019-05-25T11:32:56.931Z,76.37
2019-05-25T11:33:55.936Z,75.87
2019-05-25T11:34:55.931Z,76.68
2019-05-25T11:35:55.963Z,76.75
2019-05-25T11:36:56.000Z,76.44
2019-05-25T11:37:55.890Z,74.82
2019-05-25T11:39:55.889Z,74.98
2019-05-25T11:40:55.848Z,74.95
2019-05-25T11:41:55.864Z,73.43
2019-05-25T11:42:55.840Z,72.01
2019-05-25T11:43:55.831Z,73.53
2019-05-25T11:44:55.818Z,72.82
2019-05-25T11:45:55.824Z,73.43
2019-05-25T11:46:55.829Z,73.73
2019-05-25T11:47:55.780Z,72.92
2019-05-25T11:48:55.780Z,73.57
2019-05-25T11:49:55.759Z,73.16
2019-05-25T11:50:55.774Z,72.75
2019-05-25T11:51:55.740Z,73.87
2019-05-25T11:52:55.777Z,72.75
2019-05-25T11:53:55.729Z,72.69
2019-05-25T11:54:55.716Z,70.55
2019-05-25T11:55:55.699Z,72.01
2019-05-25T11:56:55.720Z,72.62
2019-05-25T11:57:55.716Z,73.43
2019-05-25T11:58:55.668Z,71.91
2019-05-25T11:59:55.705Z,72.72
2019-05-25T12:00:55.669Z,73.67
2019-05-25T12:01:55.645Z,72.75
2019-05-25T12:02:55.618Z,72.25
2019-05-25T12:03:55.649Z,71.94
2019-05-25T12:04:55.599Z,72.55
2019-05-25T12:05:55.602Z,72.04
2019-05-25T12:06:55.579Z,72.85
2019-05-25T12:07:55.588Z,73.50
2019-05-25T12:08:55.578Z,74.41
2019-05-25T12:10:55.551Z,74.11
2019-05-25T12:11:55.532Z,74.41
2019-05-25T12:12:55.517Z,74.52
2019-05-25T12:13:55.498Z,76.25
2019-05-25T12:14:55.492Z,75.43
2019-05-25T12:15:55.543Z,73.39
2019-05-25T12:16:55.471Z,72.78
2019-05-25T12:17:55.479Z,74.01
2019-05-25T12:18:55.482Z,74.11
2019-05-25T12:19:55.436Z,74.62
2019-05-25T12:20:55.427Z,73.50
2019-05-25T12:21:55.448Z,72.69
2019-05-25T12:22:55.432Z,74.01
2019-05-25T12:23:55.398Z,74.82
2019-05-25T12:24:55.398Z,74.45
2019-05-25T12:25:55.409Z,75.46
2019-05-25T12:26:55.369Z,74.65
2019-05-25T12:27:55.357Z,74.76
2019-05-25T12:28:55.370Z,75.06
2019-05-25T12:29:55.336Z,75.50
2019-05-25T12:30:55.340Z,75.30
2019-05-25T12:32:03.727Z,75.20
2019-05-25T12:32:56.329Z,75.09
2019-05-25T12:33:55.293Z,75.50
2019-05-25T12:34:55.277Z,75.23
2019-05-25T12:35:55.278Z,74.82
2019-05-25T12:36:55.274Z,75.64
2019-05-25T12:37:55.258Z,76.08
2019-05-25T12:38:55.233Z,75.78
2019-05-25T12:39:55.227Z,76.28
2019-05-25T12:41:55.236Z,77.10
2019-05-25T12:42:55.191Z,77.20
2019-05-25T12:43:55.197Z,77.20
2019-05-25T12:44:55.172Z,78.22
2019-05-25T12:45:55.153Z,77.81
2019-05-25T12:46:55.156Z,79.03
2019-05-25T12:47:55.145Z,78.83
2019-05-25T12:48:55.123Z,79.64
2019-05-25T12:49:55.126Z,79.85
2019-05-25T12:50:55.117Z,78.83
2019-05-25T12:51:55.106Z,79.03
2019-05-25T12:52:55.099Z,77.91
2019-05-25T12:53:55.096Z,77.57
2019-05-25T12:54:55.053Z,77.98
2019-05-25T12:55:55.065Z,77.53
2019-05-25T12:56:55.051Z,76.68
2019-05-25T12:57:55.045Z,76.79
2019-05-25T12:58:55.023Z,75.43
2019-05-25T12:59:55.026Z,76.14
2019-05-25T13:00:56.305Z,76.65
2019-05-25T13:01:54.991Z,75.98
2019-05-25T13:02:54.996Z,76.68
2019-05-25T13:03:54.994Z,76.59